Time;durP1;ratioP1;P1;durP2;ratioP2;P2;SDS_P1;SDS_P2;PMS_P1;PMS_P2;Temp;Humidity;BMP_temperature;BMP_pressure;BME280_temperature;BME280_humidity;BME280_pressure;Samples;Min_cycle;Max_cycle;Signal;HPM_P1;HPM_P2
2023/02/26 00:02:15;;;;;;;5.35;0.90;;;1.90;28.80;;;;;;4979489;28;20063;-63
2023/02/26 00:04:41;;;;;;;8.70;0.80;;;1.90;29.40;;;;;;4972209;28;20070;-62
2023/02/26 00:07:07;;;;;;;4.78;0.90;;;1.90;29.70;;;;;;4973082;28;20539;-62
2023/02/26 00:09:32;;;;;;;8.52;0.80;;;1.90;29.30;;;;;;4954024;28;20501;-62
2023/02/26 00:11:59;;;;;;;9.43;1.10;;;1.90;29.80;;;;;;4970745;28;20101;-62
2023/02/26 00:14:26;;;;;;;11.68;1.38;;;1.90;29.40;;;;;;4955429;28;20058;-62
2023/02/26 00:17:30;;;;;;;13.00;1.30;;;1.90;29.90;;;;;;4981340;28;20038;-62
2023/02/26 00:19:56;;;;;;;7.45;0.63;;;1.90;27.50;;;;;;4981132;28;20065;-62
2023/02/26 00:22:22;;;;;;;3.25;0.70;;;2.00;28.40;;;;;;4984275;28;20124;-62
2023/02/26 00:24:47;;;;;;;4.63;0.90;;;1.90;27.80;;;;;;4988297;28;20050;-62
2023/02/26 00:27:13;;;;;;;3.15;0.70;;;2.00;27.50;;;;;;4990528;28;20546;-62
2023/02/26 00:29:40;;;;;;;5.28;0.80;;;1.90;27.10;;;;;;4982603;28;20046;-62
2023/02/26 00:32:06;;;;;;;3.95;0.82;;;1.90;28.70;;;;;;4971811;28;20051;-62
2023/02/26 00:34:32;;;;;;;3.95;0.75;;;1.80;28.60;;;;;;4971464;28;20500;-61
2023/02/26 00:37:06;;;;;;;5.43;0.93;;;1.80;27.80;;;;;;4952474;28;20485;-62
2023/02/26 00:39:45;;;;;;;5.20;0.93;;;1.80;28.80;;;;;;4942687;28;20058;-62
2023/02/26 00:42:11;;;;;;;3.10;0.88;;;1.80;28.10;;;;;;4988490;28;20042;-63
2023/02/26 00:44:38;;;;;;;6.82;0.82;;;1.80;28.80;;;;;;4989054;28;20096;-62
2023/02/26 00:47:16;;;;;;;3.15;0.60;;;1.80;29.00;;;;;;4988751;28;20454;-62
2023/02/26 00:50:03;;;;;;;5.60;0.70;;;1.70;26.80;;;;;;4987738;28;20076;-62
2023/02/26 00:52:54;;;;;;;2.22;0.50;;;1.80;28.50;;;;;;4963206;28;20093;-62
2023/02/26 00:55:20;;;;;;;4.07;0.80;;;1.70;26.40;;;;;;4952903;28;20058;-62
2023/02/26 00:57:46;;;;;;;5.20;0.77;;;1.70;26.40;;;;;;4981471;28;20046;-62
2023/02/26 01:00:12;;;;;;;5.53;1.08;;;1.70;25.50;;;;;;4981636;28;20046;-62
2023/02/26 01:02:39;;;;;;;2.28;0.50;;;1.70;25.50;;;;;;4969832;28;20147;-62
2023/02/26 01:05:06;;;;;;;6.10;0.90;;;1.60;27.40;;;;;;4970314;28;20082;-62
2023/02/26 01:07:53;;;;;;;4.25;0.57;;;1.60;27.30;;;;;;4968786;28;20050;-62
2023/02/26 01:10:19;;;;;;;4.88;0.70;;;1.60;27.20;;;;;;4983292;28;20046;-62
2023/02/26 01:12:46;;;;;;;5.60;0.93;;;1.60;27.60;;;;;;4954649;28;20058;-62
2023/02/26 01:15:12;;;;;;;6.72;0.88;;;1.60;26.60;;;;;;4970776;28;20050;-62
2023/02/26 01:18:04;;;;;;;2.45;0.90;;;1.70;25.90;;;;;;4969210;28;20050;-62
2023/02/26 01:20:40;;;;;;;5.53;0.70;;;1.60;26.10;;;;;;4968620;28;20074;-62
2023/02/26 01:23:11;;;;;;;5.45;0.60;;;1.60;24.80;;;;;;4972667;28;20043;-62
2023/02/26 01:25:57;;;;;;;2.90;0.70;;;1.60;26.80;;;;;;4975557;28;20086;-62
2023/02/26 01:28:24;;;;;;;1.55;0.43;;;1.60;25.30;;;;;;4969345;28;20129;-62
2023/02/26 01:30:53;;;;;;;6.70;0.75;;;1.60;29.00;;;;;;4970268;28;20043;-62
2023/02/26 01:33:40;;;;;;;3.40;0.82;;;1.50;27.00;;;;;;4969778;28;20046;-62
2023/02/26 01:36:22;;;;;;;2.30;0.60;;;1.50;26.70;;;;;;4969903;28;20093;-62
2023/02/26 01:38:52;;;;;;;4.88;0.60;;;1.50;26.60;;;;;;4968448;28;20521;-62
2023/02/26 01:42:06;;;;;;;3.53;0.65;;;1.50;28.40;;;;;;4969700;28;20461;-62
2023/02/26 01:44:49;;;;;;;0.90;0.55;;;1.50;26.50;;;;;;4942866;28;20097;-62
2023/02/26 01:47:27;;;;;;;7.60;0.50;;;1.40;29.90;;;;;;4968381;28;20114;-62
2023/02/26 01:49:54;;;;;;;4.63;0.77;;;1.50;27.20;;;;;;4969434;28;20046;-62
2023/02/26 01:52:49;;;;;;;6.00;0.88;;;1.50;25.20;;;;;;4969311;28;20061;-62
2023/02/26 01:55:20;;;;;;;1.65;0.60;;;1.60;26.30;;;;;;4888173;28;20061;-62
2023/02/26 01:57:46;;;;;;;3.35;0.60;;;1.60;26.90;;;;;;4969704;28;20410;-62
2023/02/26 02:00:13;;;;;;;3.63;0.98;;;1.60;28.40;;;;;;4968446;28;20086;-62
2023/02/26 02:02:39;;;;;;;3.60;0.77;;;1.50;28.20;;;;;;4966660;28;20053;-62
2023/02/26 02:05:31;;;;;;;4.25;0.70;;;1.50;28.90;;;;;;4976454;28;20086;-62
2023/02/26 02:07:59;;;;;;;2.50;0.65;;;1.50;28.70;;;;;;4957226;28;20069;-62
2023/02/26 02:10:25;;;;;;;3.42;0.60;;;1.40;29.30;;;;;;4969552;28;20086;-62
2023/02/26 02:13:16;;;;;;;6.03;0.60;;;1.50;29.40;;;;;;4967877;28;20062;-62
2023/02/26 02:15:48;;;;;;;6.60;0.95;;;1.50;29.10;;;;;;4969399;28;20458;-62
2023/02/26 02:18:17;;;;;;;2.75;0.52;;;1.50;28.10;;;;;;4968811;28;20057;-62
2023/02/26 02:21:04;;;;;;;6.43;0.70;;;1.40;31.20;;;;;;4967829;28;20055;-62
2023/02/26 02:23:40;;;;;;;5.82;1.65;;;1.30;30.20;;;;;;4969296;28;20042;-62
2023/02/26 02:26:27;;;;;;;2.45;0.93;;;1.20;30.10;;;;;;4968892;28;20064;-62
2023/02/26 02:29:17;;;;;;;3.17;0.70;;;1.20;31.80;;;;;;4951075;28;20117;-62
2023/02/26 02:32:01;;;;;;;7.32;1.13;;;1.10;32.90;;;;;;4952690;28;20066;-62
2023/02/26 02:34:35;;;;;;;3.22;0.73;;;1.10;33.00;;;;;;4967616;28;20121;-62
2023/02/26 02:37:07;;;;;;;4.55;0.77;;;1.00;34.20;;;;;;4968661;28;20094;-62
2023/02/26 02:39:37;;;;;;;5.20;0.68;;;1.10;32.20;;;;;;4968269;28;20062;-62
2023/02/26 02:42:34;;;;;;;5.25;1.10;;;1.10;33.10;;;;;;4968370;28;20085;-62
2023/02/26 02:45:23;;;;;;;3.17;0.75;;;1.10;34.60;;;;;;4944138;28;20046;-62
2023/02/26 02:47:54;;;;;;;4.72;0.90;;;1.10;36.30;;;;;;4977803;28;20050;-62
2023/02/26 02:50:30;;;;;;;1.92;0.80;;;1.10;35.80;;;;;;4968844;28;20074;-62
2023/02/26 02:53:05;;;;;;;5.13;0.90;;;1.10;34.70;;;;;;4968538;28;20050;-62
2023/02/26 02:55:40;;;;;;;6.15;0.90;;;1.10;34.50;;;;;;4961604;28;20493;-62
2023/02/26 02:58:12;;;;;;;4.25;1.08;;;1.10;33.60;;;;;;4965293;28;20093;-62
2023/02/26 03:00:42;;;;;;;1.98;0.55;;;1.20;35.90;;;;;;4981485;28;20078;-62
2023/02/26 03:03:19;;;;;;;9.30;0.60;;;1.20;36.00;;;;;;4974683;28;20433;-62
2023/02/26 03:05:45;;;;;;;10.90;1.35;;;1.10;34.50;;;;;;4985686;28;20078;-62
2023/02/26 03:08:16;;;;;;;1.35;0.68;;;1.10;35.50;;;;;;4986942;28;20035;-62
2023/02/26 03:10:42;;;;;;;3.10;1.70;;;1.20;35.70;;;;;;4951202;28;20126;-62
2023/02/26 03:13:16;;;;;;;3.42;0.80;;;1.20;35.70;;;;;;4967577;28;20062;-62
2023/02/26 03:16:11;;;;;;;8.65;0.93;;;1.20;34.80;;;;;;4980312;28;20058;-62
2023/02/26 03:19:08;;;;;;;5.47;1.02;;;1.20;35.80;;;;;;4968179;28;20063;-62
2023/02/26 03:22:03;;;;;;;4.28;0.75;;;1.20;36.60;;;;;;4966878;28;20130;-62
2023/02/26 03:24:56;;;;;;;5.80;0.73;;;1.10;37.40;;;;;;4968747;28;20042;-69
2023/02/26 03:27:40;;;;;;;8.15;1.02;;;1.10;38.70;;;;;;4975539;28;20101;-62
2023/02/26 03:30:22;;;;;;;3.40;0.82;;;1.00;37.90;;;;;;4970668;28;20054;-62
2023/02/26 03:33:04;;;;;;;2.53;0.85;;;1.00;38.60;;;;;;4973068;28;20064;-62
2023/02/26 03:35:59;;;;;;;14.70;0.95;;;0.90;39.20;;;;;;4973177;28;20796;-62
2023/02/26 03:39:12;;;;;;;5.95;0.77;;;1.00;39.30;;;;;;4943107;28;20625;-62
2023/02/26 03:41:59;;;;;;;3.85;0.55;;;1.00;38.80;;;;;;4927312;28;20720;-62
2023/02/26 03:44:31;;;;;;;5.13;0.85;;;1.00;36.50;;;;;;4984496;28;20057;-62
2023/02/26 03:47:04;;;;;;;3.13;0.70;;;1.00;37.90;;;;;;4971012;28;20042;-62
2023/02/26 03:49:36;;;;;;;2.65;0.70;;;1.00;37.20;;;;;;4954857;28;20038;-62
2023/02/26 03:52:03;;;;;;;4.70;0.90;;;1.00;35.80;;;;;;4970274;28;20049;-62
2023/02/26 03:54:41;;;;;;;4.05;0.95;;;0.90;37.00;;;;;;4964753;28;20057;-62
2023/02/26 03:57:07;;;;;;;2.63;0.50;;;0.90;38.30;;;;;;4966996;28;20051;-62
2023/02/26 03:59:34;;;;;;;8.85;1.00;;;0.90;38.10;;;;;;4971559;28;20547;-62
2023/02/26 04:02:06;;;;;;;3.70;0.70;;;0.90;37.90;;;;;;4971526;28;20053;-62
2023/02/26 04:04:41;;;;;;;3.30;0.90;;;0.90;35.50;;;;;;4970428;28;20047;-63
2023/02/26 04:07:12;;;;;;;7.35;0.85;;;0.90;37.60;;;;;;4983001;28;20032;-62
2023/02/26 04:09:46;;;;;;;11.02;1.13;;;0.90;38.20;;;;;;4979107;28;20047;-62
2023/02/26 04:12:12;;;;;;;4.07;0.82;;;1.00;39.10;;;;;;4971286;28;20055;-62
2023/02/26 04:14:38;;;;;;;4.75;0.65;;;0.90;38.90;;;;;;4970945;28;20090;-62
2023/02/26 04:17:04;;;;;;;9.02;1.02;;;0.90;39.40;;;;;;4970770;28;20051;-62
2023/02/26 04:19:31;;;;;;;3.40;0.73;;;0.80;38.80;;;;;;4987853;28;20119;-62
2023/02/26 04:21:57;;;;;;;4.70;1.08;;;0.80;40.00;;;;;;4969953;28;20053;-62
2023/02/26 04:24:23;;;;;;;3.65;0.75;;;0.80;40.50;;;;;;4971245;28;20038;-62
2023/02/26 04:26:48;;;;;;;5.90;1.08;;;0.80;41.00;;;;;;4970017;28;20097;-62
2023/02/26 04:29:14;;;;;;;11.57;0.95;;;0.80;40.00;;;;;;4971010;28;20050;-62
2023/02/26 04:31:40;;;;;;;5.15;0.70;;;0.80;41.30;;;;;;4971509;28;20046;-62
2023/02/26 04:34:06;;;;;;;3.97;0.45;;;0.80;43.90;;;;;;4975909;28;20057;-62
2023/02/26 04:36:32;;;;;;;5.85;0.75;;;0.80;43.00;;;;;;4972562;28;20074;-62
2023/02/26 04:38:57;;;;;;;5.43;0.80;;;0.80;42.40;;;;;;4968976;28;20049;-62
2023/02/26 04:41:23;;;;;;;4.40;0.63;;;0.80;43.50;;;;;;4970705;28;20090;-62
2023/02/26 04:43:49;;;;;;;9.07;1.02;;;0.80;45.10;;;;;;4974240;28;20046;-81
2023/02/26 04:46:15;;;;;;;7.45;0.90;;;0.80;44.30;;;;;;4976075;28;20051;-62
2023/02/26 04:48:40;;;;;;;5.18;0.95;;;0.80;45.20;;;;;;4969750;28;20086;-62
2023/02/26 04:51:06;;;;;;;4.43;0.70;;;0.80;44.70;;;;;;4970599;28;20130;-62
2023/02/26 04:53:32;;;;;;;2.65;0.70;;;0.70;45.10;;;;;;4968689;28;20228;-88
2023/02/26 04:55:57;;;;;;;0.35;0.35;;;0.70;45.70;;;;;;4972268;28;20061;-62
2023/02/26 04:58:23;;;;;;;6.45;0.70;;;0.70;44.60;;;;;;4987138;28;20440;-62
2023/02/26 05:00:53;;;;;;;8.98;0.60;;;0.80;43.20;;;;;;4985895;28;20500;-62
2023/02/26 05:03:20;;;;;;;4.88;0.85;;;0.70;43.60;;;;;;4972814;28;20508;-62
2023/02/26 05:05:46;;;;;;;5.47;1.33;;;0.70;43.30;;;;;;4971480;28;20062;-66
2023/02/26 05:08:12;;;;;;;7.38;0.70;;;0.80;43.20;;;;;;4972603;28;20054;-62
2023/02/26 05:10:38;;;;;;;2.83;0.65;;;0.80;42.90;;;;;;4971354;28;20047;-62
2023/02/26 05:13:04;;;;;;;7.90;0.68;;;0.80;43.40;;;;;;4970646;28;20121;-62
2023/02/26 05:15:30;;;;;;;3.63;1.00;;;0.80;43.60;;;;;;4970900;28;20042;-65
2023/02/26 05:17:56;;;;;;;1.02;0.70;;;0.80;43.80;;;;;;4969933;28;20042;-79
2023/02/26 05:20:21;;;;;;;4.40;1.08;;;0.80;43.60;;;;;;4970979;28;20050;-62
2023/02/26 05:22:47;;;;;;;3.40;0.90;;;0.80;42.70;;;;;;4970948;28;20042;-62
2023/02/26 05:25:13;;;;;;;1.65;0.50;;;0.80;41.80;;;;;;4970484;28;20464;-62
2023/02/26 05:27:41;;;;;;;3.85;1.08;;;0.70;41.60;;;;;;4964838;28;20461;-62
2023/02/26 05:30:08;;;;;;;4.03;0.70;;;0.70;42.30;;;;;;4970801;28;20047;-86
2023/02/26 05:32:34;;;;;;;1.48;0.40;;;0.70;41.60;;;;;;4970572;28;20229;-62
2023/02/26 05:35:01;;;;;;;4.85;0.77;;;0.70;43.50;;;;;;4970353;28;20125;-62
2023/02/26 05:37:26;;;;;;;7.00;0.82;;;0.70;45.00;;;;;;4970664;28;20085;-62
2023/02/26 05:39:52;;;;;;;3.97;0.80;;;0.60;43.60;;;;;;4969339;28;20401;-62
2023/02/26 05:42:18;;;;;;;5.47;0.80;;;0.60;44.40;;;;;;4970284;28;20063;-62
2023/02/26 05:44:43;;;;;;;4.55;0.75;;;0.70;43.70;;;;;;4969313;28;20046;-62
2023/02/26 05:47:09;;;;;;;5.78;0.73;;;0.70;44.20;;;;;;4970218;28;20509;-62
2023/02/26 05:49:35;;;;;;;5.55;0.75;;;0.70;45.40;;;;;;4964168;28;20045;-62
2023/02/26 05:52:01;;;;;;;6.97;1.83;;;0.80;44.00;;;;;;4969800;28;20437;-62
2023/02/26 05:54:27;;;;;;;5.55;1.23;;;0.80;45.10;;;;;;4970248;28;20047;-62
2023/02/26 05:56:53;;;;;;;9.48;1.00;;;0.80;43.10;;;;;;4969117;28;20097;-62
2023/02/26 05:59:19;;;;;;;3.33;0.80;;;0.80;43.50;;;;;;4971232;28;20042;-62
2023/02/26 06:01:44;;;;;;;4.53;0.70;;;0.80;41.70;;;;;;4974409;28;20046;-62
2023/02/26 06:04:10;;;;;;;6.15;0.85;;;0.80;40.80;;;;;;4975769;28;20054;-62
2023/02/26 06:06:36;;;;;;;9.38;0.95;;;0.80;41.00;;;;;;4968804;28;20046;-62
2023/02/26 06:09:01;;;;;;;7.13;0.63;;;0.80;42.70;;;;;;4964951;28;20051;-62
2023/02/26 06:11:28;;;;;;;5.28;0.60;;;0.90;41.70;;;;;;4969698;28;20086;-62
2023/02/26 06:13:54;;;;;;;4.00;0.60;;;0.80;39.70;;;;;;4968555;28;20050;-69
2023/02/26 06:16:20;;;;;;;6.28;0.65;;;0.90;40.00;;;;;;4969054;28;20439;-63
2023/02/26 06:18:46;;;;;;;0.60;0.20;;;0.90;38.30;;;;;;4967826;28;20134;-62
2023/02/26 06:21:12;;;;;;;4.68;0.50;;;0.90;38.50;;;;;;4968544;28;20421;-62
2023/02/26 06:23:38;;;;;;;5.70;0.68;;;0.80;36.80;;;;;;4975935;28;20484;-62
2023/02/26 06:26:04;;;;;;;3.40;0.50;;;0.90;38.70;;;;;;4969409;28;20043;-62
2023/02/26 06:28:31;;;;;;;4.57;0.68;;;0.90;38.80;;;;;;4968718;28;20416;-62
2023/02/26 06:30:56;;;;;;;1.77;0.60;;;0.90;38.70;;;;;;4954830;28;20051;-62
2023/02/26 06:33:22;;;;;;;3.25;0.40;;;0.90;39.00;;;;;;4957791;28;20061;-62
2023/02/26 06:35:48;;;;;;;1.40;0.70;;;0.90;41.60;;;;;;4974919;28;20499;-62
2023/02/26 06:38:15;;;;;;;6.97;1.08;;;0.90;42.40;;;;;;4968819;28;20166;-62
2023/02/26 06:40:40;;;;;;;2.95;0.40;;;0.90;41.70;;;;;;4972633;28;20133;-62
2023/02/26 06:43:07;;;;;;;4.97;0.65;;;1.00;41.80;;;;;;4972457;28;20173;-62
2023/02/26 06:45:32;;;;;;;4.90;0.63;;;0.90;42.00;;;;;;4967762;28;20043;-62
2023/02/26 06:47:58;;;;;;;5.60;0.90;;;1.00;42.10;;;;;;4968767;28;20049;-62
2023/02/26 06:50:24;;;;;;;2.38;0.50;;;1.00;42.90;;;;;;4968690;28;20508;-62
2023/02/26 06:52:50;;;;;;;2.35;0.60;;;1.00;43.00;;;;;;4969896;28;20169;-62
2023/02/26 06:55:15;;;;;;;4.57;0.68;;;1.00;44.70;;;;;;4966571;28;20444;-62
2023/02/26 06:57:41;;;;;;;2.55;0.57;;;1.10;45.30;;;;;;4950425;28;20039;-62
2023/02/26 07:00:08;;;;;;;3.85;1.08;;;1.20;45.70;;;;;;4968835;28;20549;-62
2023/02/26 07:02:34;;;;;;;8.20;1.20;;;1.20;46.60;;;;;;4967691;28;20512;-62
2023/02/26 07:04:59;;;;;;;4.07;0.75;;;1.30;44.40;;;;;;4973636;28;20047;-66
2023/02/26 07:07:25;;;;;;;2.72;0.57;;;1.40;44.40;;;;;;4975527;28;20057;-63
2023/02/26 07:09:51;;;;;;;3.58;0.50;;;1.40;43.80;;;;;;4978221;28;20045;-62
2023/02/26 07:12:17;;;;;;;5.88;0.73;;;1.40;43.90;;;;;;4977828;28;20497;-63
2023/02/26 07:14:44;;;;;;;1.95;0.52;;;1.40;43.70;;;;;;4975480;28;20046;-62
2023/02/26 07:17:19;;;;;;;4.30;0.77;;;1.30;43.70;;;;;;4975125;28;20142;-63
2023/02/26 07:19:49;;;;;;;7.57;0.70;;;1.30;44.90;;;;;;4971040;28;20061;-62
2023/02/26 07:22:16;;;;;;;10.52;0.77;;;1.30;45.20;;;;;;4972540;28;20388;-62
2023/02/26 07:24:42;;;;;;;5.70;0.68;;;1.30;45.50;;;;;;4971720;28;20505;-62
2023/02/26 07:27:08;;;;;;;4.28;0.70;;;1.40;45.60;;;;;;4973032;28;20589;-62
2023/02/26 07:29:34;;;;;;;3.92;0.98;;;1.50;45.40;;;;;;4972288;28;20038;-62
2023/02/26 07:32:00;;;;;;;3.40;0.65;;;1.60;45.80;;;;;;4971152;28;20051;-62
2023/02/26 07:34:26;;;;;;;2.25;0.50;;;1.60;44.30;;;;;;4971850;28;20049;-63
2023/02/26 07:36:52;;;;;;;4.55;0.50;;;1.70;42.70;;;;;;4971105;28;20469;-62
2023/02/26 07:39:17;;;;;;;9.00;0.65;;;1.80;43.20;;;;;;4972217;28;20101;-62
2023/02/26 07:41:43;;;;;;;3.65;0.70;;;1.90;43.40;;;;;;4979670;28;20424;-62
2023/02/26 07:44:09;;;;;;;6.40;0.80;;;1.90;43.20;;;;;;4971905;28;20552;-63
2023/02/26 07:46:35;;;;;;;3.65;0.73;;;2.00;43.50;;;;;;4971759;28;20101;-63
2023/02/26 07:49:01;;;;;;;5.63;0.80;;;2.00;41.70;;;;;;4971380;28;20038;-63
2023/02/26 07:51:26;;;;;;;4.45;0.82;;;2.10;42.00;;;;;;4954398;28;20058;-63
2023/02/26 07:53:52;;;;;;;6.25;0.73;;;2.10;38.90;;;;;;4970570;28;20050;-70
2023/02/26 07:56:18;;;;;;;5.15;0.60;;;2.20;40.30;;;;;;4971747;28;20054;-63
2023/02/26 07:58:44;;;;;;;2.70;0.40;;;2.20;40.50;;;;;;4970433;28;20613;-62
2023/02/26 08:01:09;;;;;;;4.50;0.68;;;2.20;39.80;;;;;;4971932;28;20133;-68
2023/02/26 08:03:35;;;;;;;3.22;0.50;;;2.30;40.60;;;;;;4956351;28;20082;-62
2023/02/26 08:06:01;;;;;;;6.63;0.82;;;2.40;39.70;;;;;;4979878;28;20039;-63
2023/02/26 08:08:28;;;;;;;3.50;0.85;;;2.50;38.10;;;;;;4973241;28;20062;-62
2023/02/26 08:10:53;;;;;;;8.98;0.20;;;2.50;38.60;;;;;;4973328;28;20478;-62
2023/02/26 08:13:19;;;;;;;4.00;0.65;;;2.60;38.10;;;;;;4969453;28;20057;-63
2023/02/26 08:15:47;;;;;;;3.05;0.40;;;2.60;38.10;;;;;;4954718;28;20101;-62
2023/02/26 08:18:12;;;;;;;1.75;0.73;;;2.80;36.50;;;;;;4985961;28;20096;-62
2023/02/26 08:20:38;;;;;;;7.10;0.43;;;2.90;37.50;;;;;;4971428;28;20125;-62
2023/02/26 08:23:04;;;;;;;1.30;0.40;;;3.00;36.20;;;;;;4957296;28;20047;-62
2023/02/26 08:25:30;;;;;;;2.88;0.55;;;3.10;35.20;;;;;;4978682;28;20038;-62
2023/02/26 08:27:57;;;;;;;8.63;0.98;;;3.20;34.30;;;;;;4983484;28;20632;-62
2023/02/26 08:30:23;;;;;;;5.15;0.50;;;3.20;34.30;;;;;;4985139;28;20054;-63
2023/02/26 08:32:49;;;;;;;1.85;0.47;;;3.30;35.30;;;;;;4981684;28;20043;-62
2023/02/26 08:35:15;;;;;;;5.53;1.55;;;3.30;32.30;;;;;;4987069;28;20373;-70
2023/02/26 08:37:41;;;;;;;5.82;0.52;;;3.40;33.30;;;;;;4954143;28;20051;-83
2023/02/26 08:40:08;;;;;;;3.67;0.80;;;3.50;32.20;;;;;;4975033;28;20127;-62
2023/02/26 08:42:35;;;;;;;0.70;0.40;;;3.50;31.80;;;;;;4981425;28;20046;-62
2023/02/26 08:45:00;;;;;;;2.00;0.40;;;3.50;31.90;;;;;;4983987;28;20050;-72
2023/02/26 08:47:26;;;;;;;1.25;0.40;;;3.60;32.90;;;;;;4975531;28;20082;-62
2023/02/26 08:49:52;;;;;;;3.03;0.40;;;3.70;34.60;;;;;;4981370;28;20035;-62
2023/02/26 08:52:19;;;;;;;4.78;0.57;;;3.70;30.30;;;;;;4981349;28;20069;-63
2023/02/26 08:54:45;;;;;;;5.20;0.50;;;3.80;33.40;;;;;;4985370;28;20520;-75
2023/02/26 08:57:11;;;;;;;3.05;0.43;;;3.90;30.90;;;;;;4974782;28;20110;-62
2023/02/26 08:59:37;;;;;;;4.65;0.50;;;4.00;30.20;;;;;;4980605;28;20082;-62
2023/02/26 09:02:02;;;;;;;2.58;0.38;;;4.00;29.30;;;;;;4982216;28;20089;-62
2023/02/26 09:04:28;;;;;;;3.28;0.75;;;4.10;29.80;;;;;;4979153;28;20496;-67
2023/02/26 09:06:54;;;;;;;2.92;0.40;;;4.10;28.50;;;;;;4983018;28;20038;-62
2023/02/26 09:09:20;;;;;;;2.25;0.55;;;4.10;28.10;;;;;;4974084;28;20089;-62
2023/02/26 09:11:46;;;;;;;2.40;0.47;;;4.20;26.40;;;;;;4958254;28;20049;-81
2023/02/26 09:14:11;;;;;;;2.88;0.55;;;4.20;28.90;;;;;;4975577;28;20038;-62
2023/02/26 09:16:37;;;;;;;3.17;0.70;;;4.30;26.00;;;;;;4950059;28;20038;-62
2023/02/26 09:19:04;;;;;;;4.15;0.60;;;4.40;31.50;;;;;;4970987;28;20093;-62
2023/02/26 09:21:30;;;;;;;2.60;0.60;;;4.40;27.60;;;;;;4973425;28;20051;-62
2023/02/26 09:23:56;;;;;;;3.80;0.60;;;4.50;26.80;;;;;;4972308;28;20039;-62
2023/02/26 09:26:21;;;;;;;3.60;0.60;;;4.40;24.40;;;;;;4971267;28;20074;-63
2023/02/26 09:28:47;;;;;;;4.70;0.17;;;4.50;24.60;;;;;;4952095;28;20038;-62
2023/02/26 09:31:13;;;;;;;1.60;0.40;;;4.50;24.40;;;;;;4972522;28;20434;-62
2023/02/26 09:33:39;;;;;;;1.38;0.52;;;4.60;24.70;;;;;;4952822;28;20497;-62
2023/02/26 09:36:05;;;;;;;3.92;0.88;;;4.70;25.20;;;;;;4970806;28;20049;-62
2023/02/26 09:38:30;;;;;;;3.30;0.50;;;4.70;24.50;;;;;;4960503;28;20050;-62
2023/02/26 09:40:58;;;;;;;4.38;0.73;;;4.80;24.90;;;;;;4976259;28;20035;-62
2023/02/26 09:43:27;;;;;;;2.78;0.80;;;4.80;27.10;;;;;;4973892;28;20060;-62
2023/02/26 09:45:56;;;;;;;4.28;0.32;;;4.90;22.40;;;;;;4969084;28;20045;-62
2023/02/26 09:48:24;;;;;;;2.30;0.30;;;4.90;24.00;;;;;;4972449;28;20065;-62
2023/02/26 09:50:53;;;;;;;7.47;1.13;;;5.00;25.70;;;;;;4968445;28;20043;-62
2023/02/26 09:53:40;;;;;;;5.28;0.65;;;5.00;25.70;;;;;;4970780;28;20050;-62
2023/02/26 09:56:38;;;;;;;3.85;0.55;;;5.00;25.60;;;;;;4951087;28;20039;-62
2023/02/26 09:59:03;;;;;;;4.82;0.98;;;5.00;25.90;;;;;;4957398;28;20043;-85
2023/02/26 10:01:47;;;;;;;2.42;0.50;;;5.20;25.60;;;;;;4974558;28;20050;-62
2023/02/26 10:04:43;;;;;;;2.38;0.60;;;5.20;21.30;;;;;;4972099;28;20062;-62
2023/02/26 10:07:11;;;;;;;2.35;0.75;;;5.20;22.40;;;;;;4968020;28;20046;-62
2023/02/26 10:09:47;;;;;;;1.83;0.50;;;5.20;22.30;;;;;;4969847;28;20405;-62
2023/02/26 10:12:20;;;;;;;6.70;0.73;;;5.30;25.30;;;;;;4951313;28;20050;-63
2023/02/26 10:14:55;;;;;;;6.65;0.73;;;5.20;23.30;;;;;;4972179;28;20049;-62
2023/02/26 10:17:39;;;;;;;3.75;0.38;;;5.20;26.00;;;;;;4967918;28;20042;-65
2023/02/26 10:20:36;;;;;;;3.70;0.60;;;5.30;23.90;;;;;;4977716;28;20050;-62
2023/02/26 10:23:01;;;;;;;8.65;0.77;;;5.50;23.80;;;;;;4968160;28;20058;-62
2023/02/26 10:25:55;;;;;;;2.88;0.70;;;5.70;20.90;;;;;;4969669;28;20035;-62
2023/02/26 10:28:38;;;;;;;5.70;1.35;;;5.50;20.30;;;;;;4970328;28;20058;-62
2023/02/26 10:31:43;;;;;;;4.45;0.55;;;5.40;20.70;;;;;;4973099;28;20397;-62
2023/02/26 10:34:45;;;;;;;4.40;0.57;;;5.60;25.10;;;;;;4975293;28;20054;-62
2023/02/26 10:37:35;;;;;;;2.28;0.52;;;5.60;23.50;;;;;;4971216;28;20046;-62
2023/02/26 10:40:05;;;;;;;;;;;5.70;24.20;;;;;;4970873;28;20582;-62
2023/02/26 10:42:39;;;;;;;4.78;0.55;;;5.70;20.80;;;;;;4974532;28;19949;-62
2023/02/26 10:45:05;;;;;;;4.90;0.65;;;5.70;20.20;;;;;;4971036;28;20046;-62
2023/02/26 10:48:00;;;;;;;2.58;0.52;;;5.60;21.60;;;;;;4975873;28;20393;-62
2023/02/26 10:50:26;;;;;;;0.75;0.40;;;5.10;21.40;;;;;;4977564;28;20505;-62
2023/02/26 10:52:53;;;;;;;3.05;0.70;;;4.90;21.90;;;;;;4970596;28;20114;-62
2023/02/26 10:55:25;;;;;;;2.92;0.60;;;4.90;24.70;;;;;;4971603;28;20046;-62
2023/02/26 10:58:22;;;;;;;3.30;0.50;;;5.10;22.70;;;;;;4968420;28;20082;-62
2023/02/26 11:00:52;;;;;;;3.28;0.60;;;5.20;21.20;;;;;;4977372;28;20055;-62
2023/02/26 11:03:29;;;;;;;2.92;0.55;;;5.20;21.70;;;;;;4972394;28;20043;-88
2023/02/26 11:05:55;;;;;;;3.35;0.30;;;5.40;22.80;;;;;;4968275;28;20049;-62
2023/02/26 11:08:27;;;;;;;13.07;1.02;;;5.60;24.80;;;;;;4979804;28;20051;-75
2023/02/26 11:10:56;;;;;;;3.03;0.50;;;5.70;20.70;;;;;;4973042;28;20046;-62
2023/02/26 11:13:25;;;;;;;2.08;0.28;;;5.80;21.10;;;;;;4969391;28;20421;-62
2023/02/26 11:15:54;;;;;;;3.25;0.70;;;5.90;22.20;;;;;;4970473;28;20047;-62
2023/02/26 11:18:31;;;;;;;4.30;0.50;;;6.10;24.40;;;;;;4974719;28;20076;-62
2023/02/26 11:20:58;;;;;;;4.70;0.90;;;6.00;20.00;;;;;;4966898;28;20043;-62
2023/02/26 11:23:28;;;;;;;1.23;0.45;;;5.90;20.10;;;;;;4969095;28;20062;-62
2023/02/26 11:26:05;;;;;;;5.43;0.65;;;6.10;20.80;;;;;;4969692;28;20405;-62
2023/02/26 11:28:43;;;;;;;1.92;0.47;;;6.10;17.80;;;;;;4976951;28;20568;-62
2023/02/26 11:31:11;;;;;;;3.67;0.80;;;6.00;18.30;;;;;;4970307;28;20061;-84
2023/02/26 11:33:56;;;;;;;2.42;0.60;;;6.00;21.00;;;;;;4954903;28;20053;-62
2023/02/26 11:36:25;;;;;;;4.85;0.50;;;5.80;19.00;;;;;;4973240;28;20046;-62
2023/02/26 11:38:57;;;;;;;1.25;0.20;;;5.80;23.00;;;;;;4967093;28;20568;-62
2023/02/26 11:41:26;;;;;;;2.55;0.60;;;5.90;20.90;;;;;;4951107;28;20058;-62
2023/02/26 11:44:02;;;;;;;1.45;0.65;;;5.90;16.10;;;;;;4971590;28;20367;-62
2023/02/26 11:46:28;;;;;;;4.55;0.50;;;5.90;21.50;;;;;;4968197;28;20039;-62
2023/02/26 11:48:58;;;;;;;4.63;0.80;;;6.00;20.90;;;;;;4970910;28;20047;-62
2023/02/26 11:51:25;;;;;;;;;;;6.00;22.00;;;;;;4973699;28;20117;-62
2023/02/26 11:53:53;;;;;;;5.57;0.75;;;5.90;19.50;;;;;;4953879;28;19926;-62
2023/02/26 11:56:39;;;;;;;5.40;1.05;;;5.90;24.20;;;;;;4971226;28;20050;-62
2023/02/26 11:59:17;;;;;;;1.83;0.55;;;6.00;23.60;;;;;;4965851;28;20045;-62
2023/02/26 12:01:43;;;;;;;6.05;0.60;;;6.00;18.50;;;;;;4971390;28;20043;-62
2023/02/26 12:04:12;;;;;;;6.18;1.23;;;5.60;19.30;;;;;;4971293;28;20126;-77
2023/02/26 12:06:38;;;;;;;0.70;0.32;;;5.30;20.20;;;;;;4978000;28;20090;-62
2023/02/26 12:09:11;;;;;;;5.95;0.63;;;5.20;21.50;;;;;;4971256;28;20085;-62
2023/02/26 12:11:45;;;;;;;7.47;0.80;;;5.50;21.20;;;;;;4976876;28;20130;-62
2023/02/26 12:14:55;;;;;;;2.53;0.70;;;5.90;22.20;;;;;;4973799;28;20086;-62
2023/02/26 12:18:00;;;;;;;7.15;0.98;;;6.20;19.80;;;;;;4965091;28;20066;-74
2023/02/26 12:20:44;;;;;;;4.82;0.90;;;6.00;21.00;;;;;;4973078;28;20054;-62
2023/02/26 12:23:46;;;;;;;1.85;0.50;;;6.00;23.10;;;;;;4977945;28;20094;-62
2023/02/26 12:26:39;;;;;;;3.50;0.40;;;5.90;20.50;;;;;;4971804;28;20737;-62
2023/02/26 12:29:22;;;;;;;3.08;0.77;;;5.80;22.60;;;;;;4980309;28;20106;-62
2023/02/26 12:32:04;;;;;;;6.93;0.80;;;5.80;22.80;;;;;;4972413;28;20125;-62
2023/02/26 12:34:58;;;;;;;3.92;0.75;;;5.80;22.20;;;;;;4974209;28;20137;-61
2023/02/26 12:37:52;;;;;;;2.40;0.80;;;5.90;21.30;;;;;;4970764;28;20054;-62
2023/02/26 12:40:36;;;;;;;5.18;0.77;;;5.90;21.80;;;;;;4983388;28;20054;-74
2023/02/26 12:43:27;;;;;;;5.13;0.85;;;6.00;20.80;;;;;;4970415;28;20112;-62
2023/02/26 12:46:04;;;;;;;2.85;0.93;;;6.10;20.30;;;;;;4974587;28;20397;-62
2023/02/26 12:49:04;;;;;;;2.42;1.02;;;6.00;18.20;;;;;;4972202;28;20086;-61
2023/02/26 12:51:37;;;;;;;4.57;0.65;;;6.00;20.70;;;;;;4970443;28;20445;-62
2023/02/26 12:54:28;;;;;;;5.68;1.08;;;5.90;20.40;;;;;;4981545;28;20068;-62
2023/02/26 12:57:04;;;;;;;2.95;0.93;;;6.00;20.30;;;;;;4978854;28;20042;-62
2023/02/26 12:59:36;;;;;;;2.65;0.52;;;6.00;22.50;;;;;;4972946;28;20065;-61
2023/02/26 13:02:31;;;;;;;5.72;1.17;;;6.00;19.80;;;;;;4970764;28;20616;-61
2023/02/26 13:05:22;;;;;;;3.60;0.82;;;6.00;20.90;;;;;;4973088;28;20050;-61
2023/02/26 13:08:22;;;;;;;4.70;0.80;;;6.00;20.60;;;;;;4977162;28;20137;-61
2023/02/26 13:11:08;;;;;;;4.95;0.95;;;6.20;22.00;;;;;;4972196;28;20260;-61
2023/02/26 13:13:48;;;;;;;2.28;0.68;;;6.20;21.00;;;;;;4971473;28;20133;-62
2023/02/26 13:16:58;;;;;;;9.10;1.00;;;6.00;20.40;;;;;;4982564;28;20074;-61
2023/02/26 13:19:49;;;;;;;5.60;1.08;;;6.00;23.50;;;;;;4938935;28;20062;-61
2023/02/26 13:22:33;;;;;;;4.72;0.85;;;6.20;24.10;;;;;;4969846;28;20081;-61
2023/02/26 13:25:04;;;;;;;6.88;1.35;;;6.20;22.50;;;;;;4976182;28;20081;-61
2023/02/26 13:27:40;;;;;;;6.47;1.27;;;6.10;21.50;;;;;;4973845;28;20035;-62